Time;durP1;ratioP1;P1;durP2;ratioP2;P2;SDS_P1;SDS_P2;PMS_P1;PMS_P2;Temp;Humidity;BMP_temperature;BMP_pressure;BME280_temperature;BME280_humidity;BME280_pressure;Samples;Min_cycle;Max_cycle;Signal;HPM_P1;HPM_P2
2021/06/03 00:00:38;;;;;;;10.43;8.18;;;17.40;98.60;;;;;;5044734;28;20032;-88
2021/06/03 00:03:05;;;;;;;13.10;8.65;;;17.50;98.50;;;;;;5045192;28;20037;-89
2021/06/03 00:05:39;;;;;;;11.00;8.10;;;17.50;98.40;;;;;;5045450;28;20049;-87
2021/06/03 00:08:05;;;;;;;9.55;7.50;;;17.60;98.50;;;;;;5030461;28;20029;-87
2021/06/03 00:10:33;;;;;;;13.95;8.20;;;17.60;98.40;;;;;;5041907;28;20043;-88
2021/06/03 00:13:00;;;;;;;10.68;8.35;;;17.80;98.40;;;;;;5025105;28;20524;-88
2021/06/03 00:15:26;;;;;;;12.80;8.40;;;17.60;98.20;;;;;;5045515;28;20121;-88
2021/06/03 00:17:53;;;;;;;8.40;7.32;;;17.60;98.40;;;;;;5030003;28;20397;-88
2021/06/03 00:20:21;;;;;;;9.48;8.52;;;17.80;98.40;;;;;;5045247;28;20056;-88
2021/06/03 00:22:48;;;;;;;10.43;7.40;;;17.70;98.50;;;;;;5043358;28;20029;-88
2021/06/03 00:25:14;;;;;;;9.32;7.55;;;17.60;98.40;;;;;;5041237;28;20128;-88
2021/06/03 00:27:40;;;;;;;9.23;7.88;;;17.60;98.50;;;;;;5010138;28;20155;-88
2021/06/03 00:30:08;;;;;;;8.50;7.60;;;18.00;98.80;;;;;;5026583;28;20045;-88
2021/06/03 00:32:34;;;;;;;9.50;8.13;;;17.50;98.80;;;;;;5043029;28;21001;-88
2021/06/03 00:35:00;;;;;;;8.65;7.78;;;17.60;98.90;;;;;;5053854;28;20045;-89
2021/06/03 00:37:25;;;;;;;11.57;8.77;;;17.50;98.80;;;;;;5026142;28;20030;-88
2021/06/03 00:39:51;;;;;;;10.77;7.95;;;17.50;98.80;;;;;;5027153;28;20040;-90
2021/06/03 00:42:17;;;;;;;8.73;7.90;;;17.50;98.90;;;;;;5027638;28;20671;-88
2021/06/03 00:44:44;;;;;;;10.02;8.38;;;17.70;98.90;;;;;;5045273;28;20410;-88
2021/06/03 00:47:10;;;;;;;11.65;8.32;;;17.50;98.90;;;;;;5027050;28;20032;-88
2021/06/03 00:49:36;;;;;;;8.85;7.88;;;17.50;98.90;;;;;;5027033;28;20037;-89
2021/06/03 00:52:03;;;;;;;14.02;8.32;;;17.50;98.90;;;;;;5044647;28;20159;-88
2021/06/03 00:54:28;;;;;;;11.68;8.48;;;17.50;98.90;;;;;;5028711;28;20037;-88
2021/06/03 00:56:54;;;;;;;9.38;8.18;;;17.60;98.90;;;;;;5026125;28;20123;-88
2021/06/03 00:59:20;;;;;;;12.32;8.18;;;17.50;98.80;;;;;;5026072;28;20040;-88
2021/06/03 01:01:45;;;;;;;12.27;8.88;;;17.40;98.80;;;;;;5043275;28;20043;-87
2021/06/03 01:04:16;;;;;;;9.07;8.27;;;17.90;99.00;;;;;;5045846;28;20040;-88
2021/06/03 01:06:42;;;;;;;8.85;7.95;;;17.50;98.90;;;;;;5029478;28;20185;-88
2021/06/03 01:09:20;;;;;;;11.48;8.15;;;17.40;98.90;;;;;;5029475;28;20162;-88
2021/06/03 01:11:57;;;;;;;13.73;8.60;;;17.40;98.90;;;;;;5041799;28;20036;-88
2021/06/03 01:14:28;;;;;;;9.60;8.48;;;17.40;98.90;;;;;;5032172;28;20036;-88
2021/06/03 01:16:58;;;;;;;9.82;7.68;;;17.40;99.10;;;;;;5046302;28;20040;-89
2021/06/03 01:19:32;;;;;;;15.63;8.00;;;17.40;99.00;;;;;;5060934;28;20090;-88
2021/06/03 01:22:11;;;;;;;9.85;8.80;;;17.40;99.00;;;;;;5047673;28;20057;-87
2021/06/03 01:24:40;;;;;;;9.82;8.23;;;17.40;99.00;;;;;;5027607;28;20037;-88
2021/06/03 01:27:10;;;;;;;8.70;7.78;;;17.90;99.10;;;;;;5046195;28;20090;-88
2021/06/03 01:29:42;;;;;;;12.73;8.48;;;17.30;99.00;;;;;;5047452;28;20045;-88
2021/06/03 01:32:09;;;;;;;9.48;8.50;;;17.40;99.10;;;;;;5047818;28;20059;-88
2021/06/03 01:34:36;;;;;;;8.95;8.15;;;17.40;99.40;;;;;;5045239;28;20051;-88
2021/06/03 01:37:03;;;;;;;9.13;8.25;;;17.40;99.30;;;;;;5044249;28;20403;-88
2021/06/03 01:39:28;;;;;;;9.45;8.55;;;17.40;99.30;;;;;;5030705;28;20483;-87
2021/06/03 01:41:56;;;;;;;9.02;8.18;;;17.90;99.40;;;;;;5029877;28;20039;-87
2021/06/03 01:44:23;;;;;;;14.45;8.40;;;17.40;99.10;;;;;;5044643;28;20033;-87
2021/06/03 01:46:49;;;;;;;8.88;8.00;;;17.40;99.10;;;;;;5043575;28;20029;-87
2021/06/03 01:49:16;;;;;;;7.75;7.05;;;17.30;99.00;;;;;;5047303;28;20041;-87
2021/06/03 01:51:41;;;;;;;9.27;8.27;;;17.30;99.00;;;;;;5052069;28;20084;-87
2021/06/03 01:54:07;;;;;;;12.20;8.68;;;17.30;99.00;;;;;;5050930;28;20049;-87
2021/06/03 01:56:36;;;;;;;10.13;7.82;;;17.30;98.90;;;;;;5047660;28;20116;-87
2021/06/03 01:59:02;;;;;;;9.30;8.40;;;17.40;99.10;;;;;;5030273;28;20173;-87
2021/06/03 02:01:34;;;;;;;10.27;8.70;;;17.20;99.00;;;;;;5034964;28;20033;-87
2021/06/03 02:04:00;;;;;;;9.20;7.93;;;17.20;99.00;;;;;;5049553;28;20092;-87
2021/06/03 02:06:25;;;;;;;10.35;7.80;;;17.20;98.90;;;;;;5050281;28;20047;-87
2021/06/03 02:08:51;;;;;;;8.43;7.35;;;17.20;98.80;;;;;;5053355;28;20036;-88
2021/06/03 02:11:19;;;;;;;12.98;8.02;;;17.60;98.80;;;;;;5049352;28;20407;-88
2021/06/03 02:13:54;;;;;;;10.85;7.57;;;17.20;98.70;;;;;;5047720;28;20033;-87
2021/06/03 02:16:23;;;;;;;9.95;9.05;;;17.70;99.10;;;;;;5040936;28;20041;-87
2021/06/03 02:18:55;;;;;;;9.43;7.78;;;17.90;98.80;;;;;;5045344;28;20034;-87
2021/06/03 02:21:25;;;;;;;9.25;8.45;;;17.30;98.70;;;;;;5044443;28;20783;-87
2021/06/03 02:23:52;;;;;;;9.40;8.25;;;17.30;98.60;;;;;;5046258;28;20040;-87
2021/06/03 02:26:18;;;;;;;9.10;8.20;;;17.30;98.40;;;;;;5045749;28;20033;-88
2021/06/03 02:28:45;;;;;;;8.88;7.95;;;17.50;98.60;;;;;;5046677;28;20392;-87
2021/06/03 02:31:11;;;;;;;12.73;8.38;;;17.50;98.60;;;;;;5047339;28;20455;-87
2021/06/03 02:33:38;;;;;;;14.75;8.20;;;17.20;98.60;;;;;;5048158;28;20483;-87
2021/06/03 02:36:04;;;;;;;13.45;8.05;;;17.40;98.50;;;;;;5050716;28;20104;-88
2021/06/03 02:38:32;;;;;;;8.57;7.55;;;17.10;98.30;;;;;;5051087;28;20037;-87
2021/06/03 02:41:00;;;;;;;11.73;7.80;;;17.00;98.20;;;;;;5049250;28;20094;-87
2021/06/03 02:43:27;;;;;;;8.23;7.53;;;17.20;97.70;;;;;;5046765;28;20044;-87
2021/06/03 02:45:53;;;;;;;8.15;7.32;;;17.30;97.40;;;;;;5047745;28;20800;-87
2021/06/03 02:48:18;;;;;;;10.00;8.32;;;17.20;97.20;;;;;;5051139;28;20140;-87
2021/06/03 02:50:45;;;;;;;9.60;7.63;;;17.30;97.20;;;;;;5051958;28;20045;-87
2021/06/03 02:53:11;;;;;;;8.43;7.40;;;17.50;97.30;;;;;;5031177;28;20044;-87
2021/06/03 02:55:37;;;;;;;11.13;7.32;;;17.60;97.00;;;;;;5049713;28;20518;-86
2021/06/03 02:58:03;;;;;;;13.30;7.68;;;17.30;96.70;;;;;;5030352;28;20041;-87
2021/06/03 03:00:32;;;;;;;8.90;8.10;;;17.30;96.60;;;;;;5050891;28;20095;-86
2021/06/03 03:03:00;;;;;;;12.95;7.30;;;17.30;96.50;;;;;;5048822;28;20115;-87
2021/06/03 03:05:26;;;;;;;9.50;7.32;;;17.50;96.50;;;;;;5049772;28;20036;-87
2021/06/03 03:07:51;;;;;;;10.02;7.13;;;17.20;96.30;;;;;;5031023;28;20091;-87
2021/06/03 03:10:29;;;;;;;11.30;7.55;;;17.40;96.30;;;;;;5028988;28;20450;-87
2021/06/03 03:12:56;;;;;;;8.15;7.35;;;17.50;95.90;;;;;;5044967;28;20040;-87
2021/06/03 03:15:22;;;;;;;10.38;7.82;;;17.60;95.70;;;;;;5045525;28;21627;-87
2021/06/03 03:17:50;;;;;;;7.97;7.20;;;17.70;95.90;;;;;;5046602;28;20056;-88
2021/06/03 03:20:18;;;;;;;12.23;7.95;;;17.50;96.00;;;;;;5045729;28;20048;-87
2021/06/03 03:22:45;;;;;;;9.25;7.63;;;18.00;96.20;;;;;;5029025;28;20041;-88
2021/06/03 03:25:13;;;;;;;12.65;7.85;;;17.50;96.20;;;;;;5059722;28;20037;-87
2021/06/03 03:27:42;;;;;;;11.77;7.82;;;17.50;96.20;;;;;;5048073;28;20068;-88
2021/06/03 03:30:10;;;;;;;12.63;7.90;;;17.60;96.20;;;;;;5027478;28;20056;-88
2021/06/03 03:32:36;;;;;;;8.82;6.65;;;17.50;96.10;;;;;;5058544;28;20558;-89
2021/06/03 03:35:04;;;;;;;13.85;7.35;;;17.60;96.20;;;;;;5046228;28;20041;-88
2021/06/03 03:37:30;;;;;;;10.13;6.35;;;17.60;96.10;;;;;;5045474;28;20175;-87
2021/06/03 03:39:56;;;;;;;12.35;6.43;;;17.70;96.00;;;;;;5029828;28;20163;-87
2021/06/03 03:42:23;;;;;;;9.35;5.95;;;17.70;96.00;;;;;;5042731;28;20479;-87
2021/06/03 03:44:49;;;;;;;8.50;6.63;;;17.70;96.00;;;;;;5028145;28;20041;-87
2021/06/03 03:47:15;;;;;;;8.52;5.75;;;18.00;96.00;;;;;;5046241;28;20041;-87
2021/06/03 03:49:40;;;;;;;11.85;5.82;;;17.80;96.20;;;;;;5045448;28;20052;-87
2021/06/03 03:52:06;;;;;;;8.48;5.88;;;17.80;95.90;;;;;;5044603;28;20679;-87
2021/06/03 03:54:32;;;;;;;9.13;5.53;;;17.90;95.80;;;;;;5044083;28;20048;-86
2021/06/03 03:56:58;;;;;;;8.00;5.43;;;17.90;96.00;;;;;;5042020;28;20546;-87
2021/06/03 03:59:24;;;;;;;5.78;5.18;;;18.00;95.80;;;;;;5043995;28;20154;-87
2021/06/03 04:01:53;;;;;;;23.83;6.38;;;18.00;95.70;;;;;;5028210;28;20043;-87
2021/06/03 04:04:22;;;;;;;9.48;5.07;;;18.10;95.70;;;;;;5041191;28;20092;-87
2021/06/03 04:06:49;;;;;;;10.65;4.60;;;18.10;95.80;;;;;;5042205;28;22134;-87
2021/06/03 04:09:15;;;;;;;5.82;5.32;;;18.10;95.90;;;;;;5026914;28;20045;-87
2021/06/03 04:11:41;;;;;;;12.20;4.47;;;18.10;95.80;;;;;;5043514;28;20169;-86
2021/06/03 04:14:07;;;;;;;9.13;4.65;;;18.20;95.60;;;;;;5042503;28;20090;-86
2021/06/03 04:16:33;;;;;;;5.20;4.32;;;18.20;95.60;;;;;;5044865;28;20033;-86
2021/06/03 04:18:59;;;;;;;6.88;4.18;;;18.30;95.40;;;;;;5027669;28;20033;-87
2021/06/03 04:21:25;;;;;;;8.40;4.32;;;18.50;95.30;;;;;;5025854;28;20439;-86
2021/06/03 04:23:51;;;;;;;6.72;4.30;;;18.30;95.30;;;;;;5026533;28;20893;-86
2021/06/03 04:26:17;;;;;;;5.53;5.03;;;18.30;95.40;;;;;;5026318;28;20076;-87
2021/06/03 04:28:43;;;;;;;7.38;4.47;;;18.30;95.50;;;;;;5044061;28;20046;-87
2021/06/03 04:31:10;;;;;;;8.30;4.75;;;18.40;95.60;;;;;;5039698;28;20049;-86
2021/06/03 04:33:35;;;;;;;6.05;3.75;;;18.30;95.70;;;;;;5047225;28;20071;-87
2021/06/03 04:36:07;;;;;;;23.42;5.97;;;18.20;95.40;;;;;;5027199;28;20035;-86
2021/06/03 04:38:34;;;;;;;8.85;4.53;;;18.60;95.50;;;;;;5028300;28;20100;-88
2021/06/03 04:40:59;;;;;;;6.88;3.95;;;18.80;95.60;;;;;;5043030;28;20056;-88
2021/06/03 04:44:22;;;;;;;13.50;4.57;;;18.40;95.40;;;;;;5029817;28;20443;-87
2021/06/03 04:47:17;;;;;;;13.55;4.20;;;18.50;95.40;;;;;;5015791;28;20048;-86
2021/06/03 04:49:42;;;;;;;4.60;3.80;;;18.50;95.60;;;;;;5043048;28;20083;-87
2021/06/03 04:56:14;;;;;;;6.15;3.85;;;18.60;95.70;;;;;;5042676;28;20036;-87
2021/06/03 04:59:11;;;;;;;7.47;3.97;;;18.50;95.70;;;;;;5027737;28;20041;-87
2021/06/03 05:01:49;;;;;;;5.30;3.70;;;18.50;95.70;;;;;;5025693;28;20044;-87
2021/06/03 05:05:12;;;;;;;6.15;3.75;;;18.60;95.80;;;;;;5042674;28;20044;-86
2021/06/03 05:08:12;;;;;;;6.30;4.18;;;18.60;95.60;;;;;;5039055;28;20414;-86
2021/06/03 05:11:25;;;;;;;4.72;3.83;;;18.70;95.60;;;;;;5002967;28;21060;-85
2021/06/03 05:14:50;;;;;;;4.70;3.45;;;18.70;95.70;;;;;;5038620;28;20029;-85
2021/06/03 05:29:14;;;;;;;10.18;4.75;;;18.90;95.40;;;;;;5003988;28;20511;-89
2021/06/03 05:32:45;;;;;;;8.50;5.13;;;19.00;95.50;;;;;;4924684;29;20098;-86
2021/06/03 05:35:15;;;;;;;14.80;5.38;;;19.00;95.40;;;;;;4921829;29;20070;-85
2021/06/03 05:37:41;;;;;;;10.45;5.57;;;19.10;95.60;;;;;;4991641;28;20053;-87
2021/06/03 05:40:09;;;;;;;7.78;5.13;;;19.10;95.60;;;;;;5025486;28;20048;-88
2021/06/03 05:42:35;;;;;;;6.50;5.35;;;19.20;95.50;;;;;;5042182;28;20056;-88
2021/06/03 05:45:05;;;;;;;6.30;5.53;;;19.30;95.20;;;;;;5040481;28;20041;-88
2021/06/03 06:06:25;;;;;;;9.13;4.28;;;19.80;94.40;;;;;;4959151;28;20783;-86
2021/06/03 06:08:53;;;;;;;4.78;4.05;;;20.20;94.40;;;;;;4956264;28;20121;-89
2021/06/03 06:11:22;;;;;;;5.90;3.97;;;20.40;94.50;;;;;;4961560;28;20878;-90
2021/06/03 06:13:48;;;;;;;4.28;3.88;;;20.20;94.40;;;;;;5021947;28;20045;-89
2021/06/03 06:16:14;;;;;;;7.57;4.38;;;20.70;94.40;;;;;;5039813;28;20036;-89
2021/06/03 06:18:45;;;;;;;9.63;3.90;;;20.40;94.20;;;;;;5028918;28;20229;-89
2021/06/03 06:21:18;;;;;;;7.60;4.60;;;20.40;94.00;;;;;;5042926;28;20125;-89
2021/06/03 06:28:11;;;;;;;5.32;4.45;;;20.50;94.10;;;;;;5038741;28;20045;-88
2021/06/03 07:53:18;;;;;;;8.43;6.43;;;22.90;92.10;;;;;;4919164;29;20288;-85
2021/06/03 08:18:38;;;;;;;7.97;7.18;;;23.80;90.70;;;;;;4855921;29;20095;-84
2021/06/03 09:06:50;;;;;;;6.60;5.90;;;26.60;81.20;;;;;;4868855;29;20048;-88
2021/06/03 09:47:38;;;;;;;7.10;5.90;;;27.60;74.10;;;;;;4902935;29;20091;-88
2021/06/03 09:50:10;;;;;;;10.07;5.53;;;27.80;73.70;;;;;;4918347;28;20588;-88
2021/06/03 09:52:37;;;;;;;11.75;3.95;;;28.00;73.30;;;;;;4941350;28;20050;-83
2021/06/03 09:55:14;;;;;;;9.20;4.75;;;28.10;72.40;;;;;;5011052;28;20551;-83
2021/06/03 09:57:45;;;;;;;7.78;5.22;;;28.40;74.20;;;;;;5021047;28;20249;-85
2021/06/03 10:00:22;;;;;;;13.95;5.35;;;28.60;72.30;;;;;;5034589;28;20490;-88
2021/06/03 10:03:48;;;;;;;5.43;4.18;;;28.60;69.60;;;;;;5025267;28;20033;-85
2021/06/03 10:06:21;;;;;;;14.77;3.58;;;28.50;69.10;;;;;;5033427;28;20044;-86
2021/06/03 10:08:48;;;;;;;6.22;3.90;;;28.60;71.60;;;;;;5017708;28;20043;-87
2021/06/03 10:11:44;;;;;;;8.48;4.50;;;28.60;73.00;;;;;;5036830;28;20045;-85
2021/06/03 10:14:10;;;;;;;7.70;4.35;;;29.00;71.90;;;;;;5039862;28;20052;-85
2021/06/03 10:16:36;;;;;;;12.40;5.55;;;29.30;69.80;;;;;;5038871;28;20029;-86
2021/06/03 10:20:07;;;;;;;7.18;5.90;;;29.30;69.70;;;;;;5040537;28;20473;-84
2021/06/03 10:30:37;;;;;;;7.20;4.20;;;29.30;66.70;;;;;;4870055;29;20119;-85
2021/06/03 10:34:07;;;;;;;7.30;4.50;;;29.30;69.20;;;;;;4889614;29;20043;-85
2021/06/03 10:36:33;;;;;;;11.85;5.22;;;29.30;66.10;;;;;;4926118;29;20074;-84
2021/06/03 10:39:00;;;;;;;13.43;5.20;;;29.20;66.10;;;;;;4928435;29;20057;-84
2021/06/03 10:41:26;;;;;;;7.93;4.63;;;29.30;68.30;;;;;;4985991;28;20053;-84
2021/06/03 10:43:53;;;;;;;9.70;4.75;;;29.40;66.50;;;;;;5039351;28;20056;-86
2021/06/03 10:46:18;;;;;;;8.13;4.40;;;29.40;66.70;;;;;;5020375;28;20045;-86
2021/06/03 10:48:44;;;;;;;6.22;4.45;;;29.40;66.80;;;;;;5038668;28;20048;-86
2021/06/03 10:51:11;;;;;;;7.90;6.07;;;29.40;64.90;;;;;;5037336;28;20051;-86
2021/06/03 10:53:48;;;;;;;6.00;5.30;;;29.50;63.40;;;;;;5037382;28;20116;-87
2021/06/03 10:56:18;;;;;;;11.00;5.22;;;29.60;64.60;;;;;;5039185;28;20107;-85
2021/06/03 10:58:44;;;;;;;7.03;4.50;;;29.50;63.80;;;;;;5039617;28;20064;-82
2021/06/03 11:01:20;;;;;;;16.20;5.10;;;29.60;64.40;;;;;;5038447;28;20152;-85
2021/06/03 11:03:50;;;;;;;8.90;4.35;;;29.60;65.70;;;;;;5036869;28;20033;-84
2021/06/03 11:06:40;;;;;;;7.43;5.22;;;29.70;64.40;;;;;;5035701;28;20064;-83
2021/06/03 11:09:07;;;;;;;11.18;4.18;;;29.90;63.40;;;;;;5012526;28;20052;-85
2021/06/03 11:11:44;;;;;;;4.72;4.32;;;30.00;65.30;;;;;;5021737;28;20716;-85
2021/06/03 11:14:15;;;;;;;7.00;5.20;;;30.20;62.80;;;;;;5039934;28;20033;-84
2021/06/03 11:16:40;;;;;;;8.10;4.85;;;30.00;62.70;;;;;;5035762;28;20048;-83
2021/06/03 11:19:13;;;;;;;9.77;4.45;;;29.80;62.20;;;;;;5036253;28;20041;-84
2021/06/03 11:21:43;;;;;;;5.03;4.40;;;29.60;62.20;;;;;;5020665;28;20475;-83
2021/06/03 11:24:24;;;;;;;5.50;3.10;;;29.60;65.10;;;;;;5037766;28;20037;-84
2021/06/03 11:31:31;;;;;;;6.28;3.00;;;29.70;59.90;;;;;;5037045;28;20052;-86
2021/06/03 11:34:44;;;;;;;4.10;2.50;;;29.70;61.30;;;;;;4942806;28;20041;-84
2021/06/03 11:37:20;;;;;;;6.88;2.70;;;29.90;63.20;;;;;;4939579;28;20301;-85
2021/06/03 11:39:52;;;;;;;9.15;2.03;;;30.10;60.70;;;;;;5027961;28;20053;-87
2021/06/03 11:42:34;;;;;;;2.53;2.03;;;30.00;61.00;;;;;;5035621;28;20095;-87
2021/06/03 11:45:03;;;;;;;4.03;2.55;;;30.00;58.70;;;;;;5037401;28;20921;-85
2021/06/03 11:47:37;;;;;;;6.78;2.92;;;30.10;59.30;;;;;;5020462;28;20069;-84
2021/06/03 11:50:14;;;;;;;4.95;2.67;;;30.10;59.10;;;;;;5038739;28;20499;-85
2021/06/03 11:52:56;;;;;;;3.33;3.03;;;30.10;60.20;;;;;;5032982;28;20103;-85
2021/06/03 11:55:47;;;;;;;7.47;2.53;;;30.10;58.20;;;;;;5019223;28;20044;-84
2021/06/03 11:58:17;;;;;;;7.00;3.22;;;30.00;59.30;;;;;;5037151;28;20582;-85
2021/06/03 12:00:58;;;;;;;5.28;3.17;;;30.00;61.00;;;;;;5038241;28;20042;-83
2021/06/03 12:03:28;;;;;;;5.10;2.60;;;30.00;57.50;;;;;;5036361;28;20098;-83
2021/06/03 12:05:56;;;;;;;6.05;2.10;;;30.00;58.80;;;;;;5035600;28;20099;-84
2021/06/03 12:08:51;;;;;;;3.95;2.25;;;30.10;59.90;;;;;;5035336;28;20052;-83
2021/06/03 12:11:36;;;;;;;4.28;1.85;;;30.00;58.30;;;;;;5027467;28;20061;-84
2021/06/03 12:14:16;;;;;;;2.47;1.80;;;30.00;59.60;;;;;;5036790;28;20071;-83
2021/06/03 12:16:44;;;;;;;5.00;2.00;;;30.00;59.50;;;;;;5017954;28;20070;-83
2021/06/03 12:19:11;;;;;;;4.72;2.03;;;30.00;60.10;;;;;;5035786;28;20118;-83
2021/06/03 12:21:37;;;;;;;1.85;1.60;;;30.00;59.40;;;;;;5018689;28;20039;-83
2021/06/03 12:24:03;;;;;;;1.95;1.58;;;30.10;57.60;;;;;;5037726;28;20037;-83
2021/06/03 12:26:30;;;;;;;3.13;2.03;;;30.10;57.30;;;;;;5018878;28;21153;-84
2021/06/03 12:28:56;;;;;;;6.65;2.50;;;30.30;56.90;;;;;;5037258;28;20493;-84
2021/06/03 12:31:25;;;;;;;3.00;2.35;;;30.30;55.90;;;;;;5036148;28;20123;-86
2021/06/03 12:34:32;;;;;;;7.43;2.88;;;30.10;55.00;;;;;;5036367;28;20049;-85
2021/06/03 12:49:11;;;;;;;5.97;2.95;;;29.40;60.70;;;;;;4993732;28;20073;-87
2021/06/03 13:11:24;;;;;;;4.15;3.75;;;29.50;63.20;;;;;;4880441;29;20104;-85
2021/06/03 13:15:07;;;;;;;11.50;4.55;;;29.60;62.90;;;;;;4866753;29;20181;-84
2021/06/03 13:19:14;;;;;;;5.22;4.22;;;29.70;62.90;;;;;;4806976;29;20133;-86
2021/06/03 13:22:40;;;;;;;11.20;5.35;;;29.90;63.20;;;;;;4782076;29;20065;-86
2021/06/03 13:27:08;;;;;;;5.45;2.90;;;30.00;59.30;;;;;;4808682;29;20641;-88
2021/06/03 13:31:12;;;;;;;5.88;3.33;;;29.90;60.00;;;;;;4823712;29;20085;-86
2021/06/03 13:35:12;;;;;;;6.13;4.22;;;30.00;59.00;;;;;;4826287;29;20092;-84
2021/06/03 13:39:07;;;;;;;10.15;4.22;;;30.10;59.70;;;;;;4882904;29;20123;-86
2021/06/03 14:01:59;;;;;;;6.40;2.95;;;30.10;56.80;;;;;;4832453;29;20053;-86
2021/06/03 14:31:38;;;;;;;;;;;29.60;65.20;;;;;;4979218;28;20096;-86
2021/06/03 14:34:42;;;;;;;3.58;2.45;;;29.40;65.00;;;;;;4877137;29;20453;-86
2021/06/03 14:37:12;;;;;;;3.70;2.33;;;29.20;65.00;;;;;;4903752;28;20784;-86
2021/06/03 14:39:45;;;;;;;5.55;2.67;;;28.80;66.10;;;;;;5013603;28;20053;-86
2021/06/03 14:42:38;;;;;;;5.13;2.78;;;28.90;66.70;;;;;;5036182;28;20053;-87
2021/06/03 14:45:10;;;;;;;3.40;2.97;;;28.70;67.30;;;;;;5021077;28;20059;-87
2021/06/03 14:47:36;;;;;;;9.55;2.83;;;28.50;67.80;;;;;;5039914;28;20418;-86
2021/06/03 14:50:04;;;;;;;4.45;3.20;;;28.50;68.10;;;;;;5039699;28;20056;-86
2021/06/03 14:52:35;;;;;;;3.60;3.13;;;28.30;68.60;;;;;;5038189;28;20047;-87
2021/06/03 14:55:06;;;;;;;7.43;3.33;;;28.00;68.30;;;;;;5036556;28;20036;-87
2021/06/03 14:57:33;;;;;;;7.25;3.50;;;27.80;67.10;;;;;;5035315;28;20033;-88
2021/06/03 14:59:59;;;;;;;5.15;3.22;;;27.50;67.90;;;;;;5039334;28;20121;-86
2021/06/03 15:06:50;;;;;;;4.95;2.63;;;27.50;68.90;;;;;;5038223;28;20110;-87
2021/06/03 15:09:59;;;;;;;4.28;2.65;;;27.50;69.50;;;;;;5020628;28;20057;-87
2021/06/03 15:28:32;;;;;;;2.60;2.30;;;27.20;68.90;;;;;;4884626;29;20076;-87
2021/06/03 15:36:12;;;;;;;8.02;2.30;;;27.20;70.70;;;;;;4848300;29;20792;-89
2021/06/03 15:43:35;;;;;;;10.27;5.10;;;26.70;70.50;;;;;;4838701;29;20431;-88
2021/06/03 15:47:07;;;;;;;5.55;3.45;;;26.40;74.00;;;;;;4847194;29;20040;-89
2021/06/03 15:54:26;;;;;;;3.30;2.58;;;25.60;75.20;;;;;;4796069;29;20034;-85
2021/06/03 16:05:22;;;;;;;4.90;2.88;;;24.80;76.70;;;;;;4905245;29;20047;-89
2021/06/03 16:16:49;;;;;;;2.10;1.83;;;24.20;80.30;;;;;;4795727;29;20054;-87
2021/06/03 16:24:16;;;;;;;2.70;2.13;;;23.90;79.70;;;;;;4765020;29;20045;-88
2021/06/03 16:26:44;;;;;;;2.42;2.22;;;23.80;79.10;;;;;;4873465;28;20132;-91
2021/06/03 16:33:56;;;;;;;4.03;3.72;;;23.50;80.30;;;;;;4906276;29;20075;-87
2021/06/03 16:45:07;;;;;;;4.38;3.97;;;23.30;89.30;;;;;;4911029;29;20051;-88
2021/06/03 16:48:09;;;;;;;;;;;23.10;90.80;;;;;;4903683;29;20143;-87
2021/06/03 16:55:05;;;;;;;7.75;5.40;;;22.40;92.60;;;;;;4933012;28;20715;-87
2021/06/03 16:58:49;;;;;;;13.82;6.00;;;22.10;94.00;;;;;;4918406;28;20046;-87
2021/06/03 17:02:06;;;;;;;12.60;4.82;;;21.70;96.30;;;;;;4964109;28;20051;-87
2021/06/03 17:08:51;;;;;;;6.70;6.10;;;21.40;98.10;;;;;;4855535;29;20063;-86
2021/06/03 17:11:17;;;;;;;6.05;5.45;;;21.30;97.60;;;;;;4904042;29;20855;-87
2021/06/03 17:13:43;;;;;;;6.53;5.93;;;21.30;98.50;;;;;;4922064;28;20671;-88
2021/06/03 17:16:08;;;;;;;7.03;6.32;;;21.00;99.00;;;;;;5024802;28;20032;-87
2021/06/03 17:18:34;;;;;;;6.07;5.53;;;20.90;99.00;;;;;;5043010;28;20033;-87
2021/06/03 17:21:01;;;;;;;8.10;6.10;;;20.80;99.90;;;;;;5025811;28;20049;-86
2021/06/03 17:23:29;;;;;;;6.13;5.55;;;20.60;99.80;;;;;;5041579;28;20487;-87
2021/06/03 17:25:58;;;;;;;6.43;5.82;;;20.80;99.90;;;;;;5042193;28;20040;-87
2021/06/03 17:28:26;;;;;;;5.72;5.22;;;20.70;99.90;;;;;;5045433;28;20041;-87
2021/06/03 17:30:55;;;;;;;5.45;4.97;;;20.50;99.90;;;;;;5039892;28;20135;-87
2021/06/03 17:33:21;;;;;;;4.93;4.47;;;20.70;99.90;;;;;;5040423;28;20052;-86
2021/06/03 17:35:47;;;;;;;5.78;4.65;;;20.80;99.90;;;;;;5042096;28;20033;-87
2021/06/03 17:38:16;;;;;;;8.32;4.10;;;20.60;99.90;;;;;;5041186;28;20040;-85
2021/06/03 17:40:43;;;;;;;5.15;4.65;;;20.70;99.90;;;;;;5042006;28;20566;-87
2021/06/03 17:43:09;;;;;;;4.22;3.72;;;20.80;99.90;;;;;;5042007;28;20441;-87
2021/06/03 17:45:35;;;;;;;5.13;4.00;;;20.90;99.90;;;;;;5045556;28;20171;-87
2021/06/03 17:48:01;;;;;;;4.75;4.25;;;21.00;99.90;;;;;;5029260;28;20676;-86
2021/06/03 17:50:29;;;;;;;4.70;4.30;;;21.10;99.90;;;;;;5044387;28;20037;-85
2021/06/03 17:52:56;;;;;;;6.45;3.83;;;21.10;99.90;;;;;;5043334;28;20047;-86
2021/06/03 17:55:24;;;;;;;4.20;3.80;;;21.30;99.90;;;;;;5043216;28;20037;-89
2021/06/03 17:57:50;;;;;;;4.93;4.03;;;21.40;99.90;;;;;;5044869;28;20600;-89
2021/06/03 18:00:19;;;;;;;5.72;4.20;;;21.50;99.90;;;;;;5046166;28;20052;-88
2021/06/03 18:02:46;;;;;;;4.65;4.25;;;21.50;99.90;;;;;;5045786;28;20044;-88
2021/06/03 18:05:13;;;;;;;4.45;3.95;;;21.60;99.90;;;;;;5042361;28;20044;-89
2021/06/03 18:07:39;;;;;;;5.00;4.35;;;21.60;99.80;;;;;;5048717;28;20231;-89
2021/06/03 18:10:07;;;;;;;4.30;3.90;;;21.70;99.60;;;;;;5048028;28;20783;-90
2021/06/03 18:12:33;;;;;;;4.90;4.20;;;21.60;99.40;;;;;;5033031;28;20044;-88
2021/06/03 18:14:58;;;;;;;6.05;4.05;;;21.50;99.20;;;;;;5044709;28;20033;-86
2021/06/03 18:17:24;;;;;;;7.13;5.15;;;21.50;99.30;;;;;;5047143;28;20654;-87
2021/06/03 18:19:51;;;;;;;5.22;4.30;;;21.90;99.40;;;;;;5045751;28;20127;-87
2021/06/03 18:22:22;;;;;;;7.47;4.10;;;21.50;99.30;;;;;;5027198;28;20049;-87
2021/06/03 18:24:51;;;;;;;4.88;4.47;;;21.60;99.40;;;;;;5028914;28;20041;-89
2021/06/03 18:27:18;;;;;;;5.18;4.63;;;21.40;99.50;;;;;;5041744;28;20111;-87
2021/06/03 18:29:44;;;;;;;6.22;4.35;;;21.50;99.50;;;;;;5045135;28;20041;-87
2021/06/03 18:32:11;;;;;;;5.50;4.72;;;21.60;99.60;;;;;;5045664;28;20095;-88
2021/06/03 18:34:36;;;;;;;6.07;5.30;;;21.50;99.80;;;;;;5050171;28;20048;-88
2021/06/03 18:37:03;;;;;;;6.32;5.03;;;21.30;99.90;;;;;;5046397;28;20037;-88
2021/06/03 18:39:29;;;;;;;5.88;5.38;;;21.10;99.90;;;;;;5038282;28;20033;-87
2021/06/03 18:41:55;;;;;;;5.68;5.10;;;21.00;99.90;;;;;;5045861;28;20084;-89
2021/06/03 18:56:02;;;;;;;4.22;3.28;;;20.80;99.90;;;;;;5050686;28;20035;-90
2021/06/03 19:02:57;;;;;;;5.50;4.03;;;20.70;99.90;;;;;;5046413;28;20575;-86
2021/06/03 19:09:51;;;;;;;4.45;4.03;;;20.60;99.90;;;;;;5048560;28;20509;-89
2021/06/03 19:13:42;;;;;;;3.97;3.67;;;20.70;99.90;;;;;;4985306;28;20050;-87
2021/06/03 19:38:50;;;;;;;7.07;6.03;;;20.60;99.90;;;;;;4813920;29;20053;-87
2021/06/03 19:41:55;;;;;;;5.55;5.15;;;20.40;99.90;;;;;;4813786;29;20143;-86
2021/06/03 19:44:21;;;;;;;6.28;4.63;;;20.40;99.90;;;;;;4849542;29;20067;-86
2021/06/03 19:46:47;;;;;;;5.43;4.93;;;20.70;99.90;;;;;;4929707;28;20880;-83
2021/06/03 19:49:21;;;;;;;6.05;5.35;;;20.30;99.90;;;;;;5008412;28;20067;-86
2021/06/03 19:51:56;;;;;;;6.40;5.65;;;20.30;99.90;;;;;;5053670;28;20033;-85
2021/06/03 19:54:42;;;;;;;6.05;5.10;;;20.40;99.90;;;;;;5036881;28;20635;-84
2021/06/03 19:57:13;;;;;;;5.53;4.80;;;20.40;99.90;;;;;;5026620;28;20036;-84
2021/06/03 19:59:52;;;;;;;5.30;4.90;;;20.40;99.90;;;;;;5014789;28;20063;-84
2021/06/03 20:02:32;;;;;;;8.20;6.07;;;20.40;99.90;;;;;;5036845;28;20044;-84
2021/06/03 20:05:07;;;;;;;;;;;20.40;99.90;;;;;;5025037;28;20037;-84
2021/06/03 20:07:39;;;;;;;;;;;20.80;99.90;;;;;;5056135;28;20479;-84
2021/06/03 20:10:08;;;;;;;7.70;6.97;;;20.40;99.90;;;;;;5040129;28;19925;-84
2021/06/03 20:12:35;;;;;;;7.00;6.40;;;20.40;99.90;;;;;;5053750;28;20051;-84
2021/06/03 20:15:05;;;;;;;6.93;5.80;;;20.40;99.90;;;;;;5052230;28;20041;-84
2021/06/03 20:17:30;;;;;;;7.63;5.85;;;20.60;99.90;;;;;;5036538;28;20037;-85
2021/06/03 20:19:56;;;;;;;6.20;5.70;;;20.50;99.90;;;;;;5058095;28;20055;-84
2021/06/03 20:22:22;;;;;;;7.10;5.40;;;20.80;99.90;;;;;;5039700;28;20317;-85
2021/06/03 20:24:47;;;;;;;7.95;6.90;;;20.50;99.90;;;;;;5059448;28;20044;-85
2021/06/03 20:27:13;;;;;;;10.32;7.97;;;20.60;99.90;;;;;;5060743;28;20047;-85
2021/06/03 20:29:39;;;;;;;9.57;8.57;;;20.30;99.90;;;;;;5065080;28;20033;-85
2021/06/03 20:32:05;;;;;;;8.85;8.05;;;20.10;99.90;;;;;;5060785;28;20039;-85
2021/06/03 20:34:31;;;;;;;8.90;8.10;;;20.20;99.90;;;;;;5062068;28;20048;-85
2021/06/03 20:36:57;;;;;;;10.35;8.57;;;20.10;99.90;;;;;;5058667;28;20044;-85
2021/06/03 20:39:24;;;;;;;9.27;8.50;;;20.10;99.90;;;;;;5071544;28;20112;-85
2021/06/03 20:41:51;;;;;;;10.25;7.80;;;20.20;99.90;;;;;;5074120;28;20053;-84
2021/06/03 20:44:17;;;;;;;8.50;7.70;;;20.30;99.90;;;;;;5042332;28;20096;-85